sensor_id;sensor_type;location;lat;lon;timestamp;temperature;humidity
5494;DHT22;2769;49.864;8.656;2022-08-19T00:01:16;25.60;99.90
5494;DHT22;2769;49.864;8.656;2022-08-19T00:04:16;25.50;99.90
5494;DHT22;2769;49.864;8.656;2022-08-19T00:07:04;25.50;99.90
5494;DHT22;2769;49.864;8.656;2022-08-19T00:09:51;25.60;99.90
5494;DHT22;2769;49.864;8.656;2022-08-19T00:12:42;25.60;99.90
5494;DHT22;2769;49.864;8.656;2022-08-19T00:15:31;25.60;99.90
5494;DHT22;2769;49.864;8.656;2022-08-19T00:18:17;25.50;99.90
5494;DHT22;2769;49.864;8.656;2022-08-19T00:21:04;25.60;99.90
5494;DHT22;2769;49.864;8.656;2022-08-19T00:23:55;25.60;99.90
5494;DHT22;2769;49.864;8.656;2022-08-19T00:26:44;25.60;99.90
5494;DHT22;2769;49.864;8.656;2022-08-19T00:29:33;25.60;99.90
5494;DHT22;2769;49.864;8.656;2022-08-19T00:32:20;25.50;99.90
5494;DHT22;2769;49.864;8.656;2022-08-19T00:35:08;25.40;99.90
5494;DHT22;2769;49.864;8.656;2022-08-19T00:37:56;25.30;99.90
5494;DHT22;2769;49.864;8.656;2022-08-19T00:40:42;25.30;99.90
5494;DHT22;2769;49.864;8.656;2022-08-19T00:43:32;25.30;99.90
5494;DHT22;2769;49.864;8.656;2022-08-19T00:46:20;25.20;99.90
5494;DHT22;2769;49.864;8.656;2022-08-19T00:49:12;25.20;99.90
5494;DHT22;2769;49.864;8.656;2022-08-19T00:52:03;25.20;99.90
5494;DHT22;2769;49.864;8.656;2022-08-19T00:54:51;25.10;99.90
5494;DHT22;2769;49.864;8.656;2022-08-19T00:57:42;25.10;99.90
5494;DHT22;2769;49.864;8.656;2022-08-19T01:00:30;25.10;99.90
5494;DHT22;2769;49.864;8.656;2022-08-19T01:03:21;25.00;99.90
5494;DHT22;2769;49.864;8.656;2022-08-19T01:06:08;24.70;99.90
5494;DHT22;2769;49.864;8.656;2022-08-19T01:08:55;24.80;99.90
5494;DHT22;2769;49.864;8.656;2022-08-19T01:11:43;24.90;99.90
5494;DHT22;2769;49.864;8.656;2022-08-19T01:14:31;24.80;99.90
5494;DHT22;2769;49.864;8.656;2022-08-19T01:17:18;25.00;99.90
5494;DHT22;2769;49.864;8.656;2022-08-19T01:20:10;25.10;99.90
5494;DHT22;2769;49.864;8.656;2022-08-19T01:22:59;25.20;99.90
5494;DHT22;2769;49.864;8.656;2022-08-19T01:25:48;25.10;99.90
5494;DHT22;2769;49.864;8.656;2022-08-19T01:28:36;25.30;99.90
5494;DHT22;2769;49.864;8.656;2022-08-19T01:31:28;25.30;99.90
5494;DHT22;2769;49.864;8.656;2022-08-19T01:34:18;25.30;99.90
5494;DHT22;2769;49.864;8.656;2022-08-19T01:37:07;25.40;99.90
5494;DHT22;2769;49.864;8.656;2022-08-19T01:39:57;25.30;99.90
5494;DHT22;2769;49.864;8.656;2022-08-19T01:42:44;25.30;99.90
5494;DHT22;2769;49.864;8.656;2022-08-19T01:45:33;25.30;99.90
5494;DHT22;2769;49.864;8.656;2022-08-19T01:48:20;25.10;99.90
5494;DHT22;2769;49.864;8.656;2022-08-19T01:51:09;25.10;99.90
5494;DHT22;2769;49.864;8.656;2022-08-19T01:53:56;25.00;99.90
5494;DHT22;2769;49.864;8.656;2022-08-19T01:56:44;24.90;99.90
5494;DHT22;2769;49.864;8.656;2022-08-19T01:59:32;25.00;99.90
5494;DHT22;2769;49.864;8.656;2022-08-19T02:02:19;24.90;99.90
5494;DHT22;2769;49.864;8.656;2022-08-19T02:05:05;25.10;99.90
5494;DHT22;2769;49.864;8.656;2022-08-19T02:07:55;25.10;99.90
5494;DHT22;2769;49.864;8.656;2022-08-19T02:10:43;25.10;99.90
5494;DHT22;2769;49.864;8.656;2022-08-19T02:13:31;25.20;99.90
5494;DHT22;2769;49.864;8.656;2022-08-19T02:16:19;25.40;99.90
5494;DHT22;2769;49.864;8.656;2022-08-19T02:19:06;25.40;99.90
5494;DHT22;2769;49.864;8.656;2022-08-19T02:21:53;25.40;99.90
5494;DHT22;2769;49.864;8.656;2022-08-19T02:24:39;25.20;99.90
5494;DHT22;2769;49.864;8.656;2022-08-19T02:27:25;25.20;99.90
5494;DHT22;2769;49.864;8.656;2022-08-19T02:30:15;25.20;99.90
5494;DHT22;2769;49.864;8.656;2022-08-19T02:33:02;24.70;99.90
5494;DHT22;2769;49.864;8.656;2022-08-19T02:35:49;24.60;99.90
5494;DHT22;2769;49.864;8.656;2022-08-19T02:38:36;24.70;99.90
5494;DHT22;2769;49.864;8.656;2022-08-19T02:41:24;24.70;99.90
5494;DHT22;2769;49.864;8.656;2022-08-19T02:44:12;24.60;99.90
5494;DHT22;2769;49.864;8.656;2022-08-19T02:47:16;24.70;99.90
5494;DHT22;2769;49.864;8.656;2022-08-19T02:50:04;24.70;99.90
5494;DHT22;2769;49.864;8.656;2022-08-19T02:52:51;24.70;99.90
5494;DHT22;2769;49.864;8.656;2022-08-19T02:55:43;24.60;99.90
5494;DHT22;2769;49.864;8.656;2022-08-19T02:58:30;24.70;99.90
5494;DHT22;2769;49.864;8.656;2022-08-19T03:01:21;24.70;99.90
5494;DHT22;2769;49.864;8.656;2022-08-19T03:04:11;24.50;99.90
5494;DHT22;2769;49.864;8.656;2022-08-19T03:06:58;24.50;99.90
5494;DHT22;2769;49.864;8.656;2022-08-19T03:09:55;24.50;99.90
5494;DHT22;2769;49.864;8.656;2022-08-19T03:12:41;24.50;99.90
5494;DHT22;2769;49.864;8.656;2022-08-19T03:15:28;24.40;99.90
5494;DHT22;2769;49.864;8.656;2022-08-19T03:18:16;24.50;99.90
5494;DHT22;2769;49.864;8.656;2022-08-19T03:21:05;24.60;99.90
5494;DHT22;2769;49.864;8.656;2022-08-19T03:23:57;24.40;99.90
5494;DHT22;2769;49.864;8.656;2022-08-19T03:26:47;24.40;99.90
5494;DHT22;2769;49.864;8.656;2022-08-19T03:29:37;24.50;99.90
5494;DHT22;2769;49.864;8.656;2022-08-19T03:32:28;24.50;99.90
5494;DHT22;2769;49.864;8.656;2022-08-19T03:35:17;24.30;99.90
5494;DHT22;2769;49.864;8.656;2022-08-19T03:38:06;24.30;99.90
5494;DHT22;2769;49.864;8.656;2022-08-19T03:40:53;24.40;99.90
5494;DHT22;2769;49.864;8.656;2022-08-19T03:43:41;24.60;99.90
5494;DHT22;2769;49.864;8.656;2022-08-19T03:46:29;24.50;99.90
5494;DHT22;2769;49.864;8.656;2022-08-19T03:49:18;24.70;99.90
5494;DHT22;2769;49.864;8.656;2022-08-19T03:52:05;24.70;99.90
5494;DHT22;2769;49.864;8.656;2022-08-19T03:54:53;24.70;99.90
5494;DHT22;2769;49.864;8.656;2022-08-19T03:57:40;24.70;99.90
5494;DHT22;2769;49.864;8.656;2022-08-19T04:00:27;24.60;99.90
5494;DHT22;2769;49.864;8.656;2022-08-19T04:03:13;24.80;99.90
5494;DHT22;2769;49.864;8.656;2022-08-19T04:06:09;24.80;99.90
5494;DHT22;2769;49.864;8.656;2022-08-19T04:08:57;24.70;99.90
5494;DHT22;2769;49.864;8.656;2022-08-19T04:11:47;24.60;99.90
5494;DHT22;2769;49.864;8.656;2022-08-19T04:14:34;24.40;99.90
5494;DHT22;2769;49.864;8.656;2022-08-19T04:17:21;24.40;99.90
5494;DHT22;2769;49.864;8.656;2022-08-19T04:20:08;24.40;99.90
5494;DHT22;2769;49.864;8.656;2022-08-19T04:22:56;24.60;99.90
5494;DHT22;2769;49.864;8.656;2022-08-19T04:25:44;24.60;99.90
5494;DHT22;2769;49.864;8.656;2022-08-19T04:28:31;24.60;99.90
5494;DHT22;2769;49.864;8.656;2022-08-19T04:31:22;24.50;99.90
5494;DHT22;2769;49.864;8.656;2022-08-19T04:34:13;24.30;99.90
5494;DHT22;2769;49.864;8.656;2022-08-19T04:37:00;24.30;99.90
5494;DHT22;2769;49.864;8.656;2022-08-19T04:39:47;24.40;99.90
5494;DHT22;2769;49.864;8.656;2022-08-19T04:42:50;24.30;99.90
5494;DHT22;2769;49.864;8.656;2022-08-19T04:45:40;24.20;99.90
5494;DHT22;2769;49.864;8.656;2022-08-19T04:48:28;24.30;99.90
5494;DHT22;2769;49.864;8.656;2022-08-19T04:51:19;24.30;99.90
5494;DHT22;2769;49.864;8.656;2022-08-19T04:54:06;24.30;99.90
5494;DHT22;2769;49.864;8.656;2022-08-19T04:56:52;24.40;99.90
5494;DHT22;2769;49.864;8.656;2022-08-19T04:59:39;24.30;99.90
5494;DHT22;2769;49.864;8.656;2022-08-19T05:02:27;24.20;99.90
5494;DHT22;2769;49.864;8.656;2022-08-19T05:05:14;24.30;99.90
5494;DHT22;2769;49.864;8.656;2022-08-19T05:08:01;24.40;99.90
5494;DHT22;2769;49.864;8.656;2022-08-19T05:10:50;24.40;99.90
5494;DHT22;2769;49.864;8.656;2022-08-19T05:13:37;24.50;99.90
5494;DHT22;2769;49.864;8.656;2022-08-19T05:16:27;24.60;99.90
5494;DHT22;2769;49.864;8.656;2022-08-19T05:19:15;24.70;99.90
5494;DHT22;2769;49.864;8.656;2022-08-19T05:22:19;24.70;99.90
5494;DHT22;2769;49.864;8.656;2022-08-19T05:25:24;24.50;99.90
5494;DHT22;2769;49.864;8.656;2022-08-19T05:28:11;24.50;99.90
5494;DHT22;2769;49.864;8.656;2022-08-19T05:30:57;24.70;99.90
5494;DHT22;2769;49.864;8.656;2022-08-19T05:33:44;24.60;99.90
5494;DHT22;2769;49.864;8.656;2022-08-19T05:36:37;24.50;99.90
5494;DHT22;2769;49.864;8.656;2022-08-19T05:39:28;24.70;99.90
5494;DHT22;2769;49.864;8.656;2022-08-19T05:42:15;24.70;99.90
5494;DHT22;2769;49.864;8.656;2022-08-19T05:45:02;24.60;99.90
5494;DHT22;2769;49.864;8.656;2022-08-19T05:47:49;24.70;99.90
5494;DHT22;2769;49.864;8.656;2022-08-19T05:50:36;24.60;99.90
5494;DHT22;2769;49.864;8.656;2022-08-19T05:53:24;24.50;99.90
5494;DHT22;2769;49.864;8.656;2022-08-19T05:56:13;24.50;99.90
5494;DHT22;2769;49.864;8.656;2022-08-19T05:59:01;24.60;99.90
5494;DHT22;2769;49.864;8.656;2022-08-19T06:01:49;24.60;99.90
5494;DHT22;2769;49.864;8.656;2022-08-19T06:04:36;24.60;99.90
5494;DHT22;2769;49.864;8.656;2022-08-19T06:07:24;24.60;99.90
5494;DHT22;2769;49.864;8.656;2022-08-19T06:10:13;24.60;99.90
5494;DHT22;2769;49.864;8.656;2022-08-19T06:12:59;24.80;99.90
5494;DHT22;2769;49.864;8.656;2022-08-19T06:15:46;24.80;99.90
5494;DHT22;2769;49.864;8.656;2022-08-19T06:18:33;24.70;99.90
5494;DHT22;2769;49.864;8.656;2022-08-19T06:21:20;24.60;99.90
5494;DHT22;2769;49.864;8.656;2022-08-19T06:24:09;24.60;99.90
5494;DHT22;2769;49.864;8.656;2022-08-19T06:26:59;24.40;99.90
5494;DHT22;2769;49.864;8.656;2022-08-19T06:29:46;24.30;99.90
5494;DHT22;2769;49.864;8.656;2022-08-19T06:32:33;24.50;99.90
5494;DHT22;2769;49.864;8.656;2022-08-19T06:35:26;24.60;99.90
5494;DHT22;2769;49.864;8.656;2022-08-19T06:38:14;24.50;99.90
5494;DHT22;2769;49.864;8.656;2022-08-19T06:41:02;24.80;99.90
5494;DHT22;2769;49.864;8.656;2022-08-19T06:43:53;24.90;99.90
5494;DHT22;2769;49.864;8.656;2022-08-19T06:46:41;24.90;99.90
5494;DHT22;2769;49.864;8.656;2022-08-19T06:49:37;24.70;99.90
5494;DHT22;2769;49.864;8.656;2022-08-19T06:52:24;24.80;99.90
5494;DHT22;2769;49.864;8.656;2022-08-19T06:55:10;25.00;99.90
5494;DHT22;2769;49.864;8.656;2022-08-19T06:57:57;25.20;99.90
5494;DHT22;2769;49.864;8.656;2022-08-19T07:00:48;25.50;99.90
5494;DHT22;2769;49.864;8.656;2022-08-19T07:03:37;25.60;99.90
5494;DHT22;2769;49.864;8.656;2022-08-19T07:06:25;25.80;99.90
5494;DHT22;2769;49.864;8.656;2022-08-19T07:09:29;25.80;99.90
5494;DHT22;2769;49.864;8.656;2022-08-19T07:12:16;26.00;99.90
5494;DHT22;2769;49.864;8.656;2022-08-19T07:15:08;26.10;99.90
5494;DHT22;2769;49.864;8.656;2022-08-19T07:17:57;26.10;99.90
5494;DHT22;2769;49.864;8.656;2022-08-19T07:20:44;25.80;99.90
5494;DHT22;2769;49.864;8.656;2022-08-19T07:23:31;25.70;99.90
5494;DHT22;2769;49.864;8.656;2022-08-19T07:26:20;25.70;99.90
5494;DHT22;2769;49.864;8.656;2022-08-19T07:29:12;25.90;99.90
5494;DHT22;2769;49.864;8.656;2022-08-19T07:32:00;26.00;99.90
5494;DHT22;2769;49.864;8.656;2022-08-19T07:34:49;26.10;99.90
5494;DHT22;2769;49.864;8.656;2022-08-19T07:37:35;26.10;99.90
5494;DHT22;2769;49.864;8.656;2022-08-19T07:40:23;26.10;99.90
5494;DHT22;2769;49.864;8.656;2022-08-19T07:43:10;26.30;99.90
5494;DHT22;2769;49.864;8.656;2022-08-19T07:46:02;26.40;99.90
5494;DHT22;2769;49.864;8.656;2022-08-19T07:48:50;26.60;99.90
5494;DHT22;2769;49.864;8.656;2022-08-19T07:51:39;26.80;99.90
5494;DHT22;2769;49.864;8.656;2022-08-19T07:54:27;26.70;99.90
5494;DHT22;2769;49.864;8.656;2022-08-19T07:57:14;26.90;99.90
5494;DHT22;2769;49.864;8.656;2022-08-19T08:00:00;27.00;99.90
5494;DHT22;2769;49.864;8.656;2022-08-19T08:02:47;27.00;99.90
5494;DHT22;2769;49.864;8.656;2022-08-19T08:05:35;27.00;99.90
5494;DHT22;2769;49.864;8.656;2022-08-19T08:08:40;27.60;99.90
5494;DHT22;2769;49.864;8.656;2022-08-19T08:11:47;27.80;99.90
5494;DHT22;2769;49.864;8.656;2022-08-19T08:14:39;28.20;99.90
5494;DHT22;2769;49.864;8.656;2022-08-19T08:17:29;28.00;99.90
5494;DHT22;2769;49.864;8.656;2022-08-19T08:20:35;28.40;99.90
5494;DHT22;2769;49.864;8.656;2022-08-19T08:23:22;29.00;99.90
5494;DHT22;2769;49.864;8.656;2022-08-19T08:26:12;29.10;99.90
5494;DHT22;2769;49.864;8.656;2022-08-19T08:29:00;29.30;99.90
5494;DHT22;2769;49.864;8.656;2022-08-19T08:31:57;29.20;99.90
5494;DHT22;2769;49.864;8.656;2022-08-19T08:34:44;28.40;99.90
5494;DHT22;2769;49.864;8.656;2022-08-19T08:37:36;28.60;99.90
5494;DHT22;2769;49.864;8.656;2022-08-19T08:40:29;28.70;99.90
5494;DHT22;2769;49.864;8.656;2022-08-19T08:43:23;28.30;99.90
5494;DHT22;2769;49.864;8.656;2022-08-19T08:46:21;28.40;99.90
5494;DHT22;2769;49.864;8.656;2022-08-19T08:49:24;28.60;99.90
5494;DHT22;2769;49.864;8.656;2022-08-19T08:52:17;28.90;99.90
5494;DHT22;2769;49.864;8.656;2022-08-19T08:55:08;29.30;99.90
5494;DHT22;2769;49.864;8.656;2022-08-19T08:58:00;29.00;99.90
5494;DHT22;2769;49.864;8.656;2022-08-19T09:00:49;28.90;99.90
5494;DHT22;2769;49.864;8.656;2022-08-19T09:03:37;28.90;99.90
5494;DHT22;2769;49.864;8.656;2022-08-19T09:06:32;28.80;99.90
5494;DHT22;2769;49.864;8.656;2022-08-19T09:09:25;29.00;99.90
5494;DHT22;2769;49.864;8.656;2022-08-19T09:12:22;29.30;99.90
5494;DHT22;2769;49.864;8.656;2022-08-19T09:15:13;29.00;99.90
5494;DHT22;2769;49.864;8.656;2022-08-19T09:18:03;29.20;99.90
5494;DHT22;2769;49.864;8.656;2022-08-19T09:20:51;29.10;99.90
5494;DHT22;2769;49.864;8.656;2022-08-19T09:23:38;29.20;99.90
5494;DHT22;2769;49.864;8.656;2022-08-19T09:26:25;29.30;99.90
5494;DHT22;2769;49.864;8.656;2022-08-19T09:29:32;29.10;99.90
5494;DHT22;2769;49.864;8.656;2022-08-19T09:32:20;29.10;99.90
5494;DHT22;2769;49.864;8.656;2022-08-19T09:35:13;29.00;99.90
5494;DHT22;2769;49.864;8.656;2022-08-19T09:38:00;29.00;99.90
5494;DHT22;2769;49.864;8.656;2022-08-19T09:40:47;28.60;99.90
5494;DHT22;2769;49.864;8.656;2022-08-19T09:43:35;28.60;99.90
5494;DHT22;2769;49.864;8.656;2022-08-19T09:46:29;28.40;99.90
5494;DHT22;2769;49.864;8.656;2022-08-19T09:49:17;28.40;99.90
5494;DHT22;2769;49.864;8.656;2022-08-19T09:52:07;28.30;99.90
5494;DHT22;2769;49.864;8.656;2022-08-19T09:54:57;28.50;99.90
5494;DHT22;2769;49.864;8.656;2022-08-19T09:57:45;28.80;99.90
5494;DHT22;2769;49.864;8.656;2022-08-19T10:00:31;29.80;99.90
5494;DHT22;2769;49.864;8.656;2022-08-19T10:03:18;30.70;99.60
5494;DHT22;2769;49.864;8.656;2022-08-19T10:06:10;31.00;98.00
5494;DHT22;2769;49.864;8.656;2022-08-19T10:09:04;30.90;97.50
5494;DHT22;2769;49.864;8.656;2022-08-19T10:11:53;30.90;98.00
5494;DHT22;2769;49.864;8.656;2022-08-19T10:14:46;31.50;97.70
5494;DHT22;2769;49.864;8.656;2022-08-19T10:17:33;31.70;96.40
5494;DHT22;2769;49.864;8.656;2022-08-19T10:20:21;31.40;96.50
5494;DHT22;2769;49.864;8.656;2022-08-19T10:23:08;31.00;96.40
5494;DHT22;2769;49.864;8.656;2022-08-19T10:25:59;30.10;97.40
5494;DHT22;2769;49.864;8.656;2022-08-19T10:28:46;29.80;97.90
5494;DHT22;2769;49.864;8.656;2022-08-19T10:31:33;29.60;98.20
5494;DHT22;2769;49.864;8.656;2022-08-19T10:34:40;29.80;98.50
5494;DHT22;2769;49.864;8.656;2022-08-19T10:37:32;29.60;98.00
5494;DHT22;2769;49.864;8.656;2022-08-19T10:40:19;29.80;97.90
5494;DHT22;2769;49.864;8.656;2022-08-19T10:43:08;30.30;98.00
5494;DHT22;2769;49.864;8.656;2022-08-19T10:45:54;31.40;96.60
5494;DHT22;2769;49.864;8.656;2022-08-19T10:48:44;32.10;94.00
5494;DHT22;2769;49.864;8.656;2022-08-19T10:51:32;31.70;93.50
5494;DHT22;2769;49.864;8.656;2022-08-19T10:54:36;32.20;93.50
5494;DHT22;2769;49.864;8.656;2022-08-19T10:57:40;33.00;91.70
5494;DHT22;2769;49.864;8.656;2022-08-19T11:00:53;33.30;90.50
5494;DHT22;2769;49.864;8.656;2022-08-19T11:03:41;33.00;90.70
5494;DHT22;2769;49.864;8.656;2022-08-19T11:06:32;32.40;90.60
5494;DHT22;2769;49.864;8.656;2022-08-19T11:09:23;32.30;91.30
5494;DHT22;2769;49.864;8.656;2022-08-19T11:12:18;33.00;89.10
5494;DHT22;2769;49.864;8.656;2022-08-19T11:15:06;32.80;87.20
5494;DHT22;2769;49.864;8.656;2022-08-19T11:17:57;32.50;85.70
5494;DHT22;2769;49.864;8.656;2022-08-19T11:20:44;32.70;85.50
5494;DHT22;2769;49.864;8.656;2022-08-19T11:23:30;32.90;84.10
5494;DHT22;2769;49.864;8.656;2022-08-19T11:26:18;33.30;83.00
5494;DHT22;2769;49.864;8.656;2022-08-19T11:29:06;33.90;82.90
5494;DHT22;2769;49.864;8.656;2022-08-19T11:31:56;34.40;80.60
5494;DHT22;2769;49.864;8.656;2022-08-19T11:34:44;34.60;73.80
5494;DHT22;2769;49.864;8.656;2022-08-19T11:37:31;34.90;73.90
5494;DHT22;2769;49.864;8.656;2022-08-19T11:40:22;34.70;74.90
5494;DHT22;2769;49.864;8.656;2022-08-19T11:43:18;35.40;73.10
5494;DHT22;2769;49.864;8.656;2022-08-19T11:46:13;35.60;71.50
5494;DHT22;2769;49.864;8.656;2022-08-19T11:49:01;35.60;67.60
5494;DHT22;2769;49.864;8.656;2022-08-19T11:51:49;35.00;68.00
5494;DHT22;2769;49.864;8.656;2022-08-19T11:54:38;34.50;68.40
5494;DHT22;2769;49.864;8.656;2022-08-19T11:57:25;34.90;69.60
5494;DHT22;2769;49.864;8.656;2022-08-19T12:00:13;36.00;67.70
5494;DHT22;2769;49.864;8.656;2022-08-19T12:03:00;36.60;66.40
5494;DHT22;2769;49.864;8.656;2022-08-19T12:05:47;35.60;66.70
5494;DHT22;2769;49.864;8.656;2022-08-19T12:08:35;35.80;66.00
5494;DHT22;2769;49.864;8.656;2022-08-19T12:11:23;35.10;66.50
5494;DHT22;2769;49.864;8.656;2022-08-19T12:14:11;34.80;67.90
5494;DHT22;2769;49.864;8.656;2022-08-19T12:17:01;34.10;67.30
5494;DHT22;2769;49.864;8.656;2022-08-19T12:19:50;33.60;68.40
5494;DHT22;2769;49.864;8.656;2022-08-19T12:22:37;33.00;69.30
5494;DHT22;2769;49.864;8.656;2022-08-19T12:25:25;32.40;70.90
5494;DHT22;2769;49.864;8.656;2022-08-19T12:28:12;33.70;69.50
5494;DHT22;2769;49.864;8.656;2022-08-19T12:30:58;35.70;66.30
5494;DHT22;2769;49.864;8.656;2022-08-19T12:33:45;37.30;60.00
5494;DHT22;2769;49.864;8.656;2022-08-19T12:36:33;38.00;56.50
5494;DHT22;2769;49.864;8.656;2022-08-19T12:39:20;37.10;57.20
5494;DHT22;2769;49.864;8.656;2022-08-19T12:42:09;37.20;57.20
5494;DHT22;2769;49.864;8.656;2022-08-19T12:44:56;38.30;56.60
5494;DHT22;2769;49.864;8.656;2022-08-19T12:47:42;37.90;55.00
5494;DHT22;2769;49.864;8.656;2022-08-19T12:50:31;38.90;53.20
5494;DHT22;2769;49.864;8.656;2022-08-19T12:53:18;39.70;51.20
5494;DHT22;2769;49.864;8.656;2022-08-19T12:56:05;40.40;49.50
5494;DHT22;2769;49.864;8.656;2022-08-19T12:59:00;39.00;48.70
5494;DHT22;2769;49.864;8.656;2022-08-19T13:01:48;39.70;49.10
5494;DHT22;2769;49.864;8.656;2022-08-19T13:04:34;40.30;46.90
5494;DHT22;2769;49.864;8.656;2022-08-19T13:07:23;40.80;48.00
5494;DHT22;2769;49.864;8.656;2022-08-19T13:10:11;40.80;46.00
5494;DHT22;2769;49.864;8.656;2022-08-19T13:13:02;41.30;46.10
5494;DHT22;2769;49.864;8.656;2022-08-19T13:15:52;40.80;45.10
5494;DHT22;2769;49.864;8.656;2022-08-19T13:18:40;39.70;47.20
5494;DHT22;2769;49.864;8.656;2022-08-19T13:21:27;41.10;46.00
5494;DHT22;2769;49.864;8.656;2022-08-19T13:24:15;41.60;44.20
5494;DHT22;2769;49.864;8.656;2022-08-19T13:27:02;41.80;44.40
5494;DHT22;2769;49.864;8.656;2022-08-19T13:29:52;42.90;44.10
5494;DHT22;2769;49.864;8.656;2022-08-19T13:32:58;42.80;42.30
5494;DHT22;2769;49.864;8.656;2022-08-19T13:36:02;43.00;43.10
5494;DHT22;2769;49.864;8.656;2022-08-19T13:38:52;41.10;43.50
5494;DHT22;2769;49.864;8.656;2022-08-19T13:41:43;38.10;46.30
5494;DHT22;2769;49.864;8.656;2022-08-19T13:44:33;35.90;48.80
5494;DHT22;2769;49.864;8.656;2022-08-19T13:47:20;34.80;51.10
5494;DHT22;2769;49.864;8.656;2022-08-19T13:50:09;33.70;52.30
5494;DHT22;2769;49.864;8.656;2022-08-19T13:52:56;34.10;53.70
5494;DHT22;2769;49.864;8.656;2022-08-19T13:55:43;36.60;51.70
5494;DHT22;2769;49.864;8.656;2022-08-19T13:58:30;39.50;46.60
5494;DHT22;2769;49.864;8.656;2022-08-19T14:01:19;41.00;44.40
5494;DHT22;2769;49.864;8.656;2022-08-19T14:04:09;41.80;42.90
5494;DHT22;2769;49.864;8.656;2022-08-19T14:06:57;41.30;42.40
5494;DHT22;2769;49.864;8.656;2022-08-19T14:09:43;41.60;42.00
5494;DHT22;2769;49.864;8.656;2022-08-19T14:12:35;42.40;41.30
5494;DHT22;2769;49.864;8.656;2022-08-19T14:15:22;41.40;40.00
5494;DHT22;2769;49.864;8.656;2022-08-19T14:18:09;40.40;41.90
5494;DHT22;2769;49.864;8.656;2022-08-19T14:20:56;40.50;40.30
5494;DHT22;2769;49.864;8.656;2022-08-19T14:23:44;39.00;42.20
5494;DHT22;2769;49.864;8.656;2022-08-19T14:26:31;38.90;43.90
5494;DHT22;2769;49.864;8.656;2022-08-19T14:29:17;39.30;43.10
5494;DHT22;2769;49.864;8.656;2022-08-19T14:32:04;41.00;41.70
5494;DHT22;2769;49.864;8.656;2022-08-19T14:34:55;41.10;40.50
5494;DHT22;2769;49.864;8.656;2022-08-19T14:37:43;40.20;41.80
5494;DHT22;2769;49.864;8.656;2022-08-19T14:40:42;40.40;41.50
5494;DHT22;2769;49.864;8.656;2022-08-19T14:43:29;39.90;41.60
5494;DHT22;2769;49.864;8.656;2022-08-19T14:46:17;38.20;43.20
5494;DHT22;2769;49.864;8.656;2022-08-19T14:49:04;37.00;44.80
5494;DHT22;2769;49.864;8.656;2022-08-19T14:51:53;36.20;46.40
5494;DHT22;2769;49.864;8.656;2022-08-19T14:54:41;34.70;48.10
5494;DHT22;2769;49.864;8.656;2022-08-19T14:57:30;33.60;49.90
5494;DHT22;2769;49.864;8.656;2022-08-19T15:00:17;33.20;50.70
5494;DHT22;2769;49.864;8.656;2022-08-19T15:03:03;32.90;51.10
5494;DHT22;2769;49.864;8.656;2022-08-19T15:05:50;33.00;51.50
5494;DHT22;2769;49.864;8.656;2022-08-19T15:08:38;33.30;50.40
5494;DHT22;2769;49.864;8.656;2022-08-19T15:11:26;33.30;50.10
5494;DHT22;2769;49.864;8.656;2022-08-19T15:14:15;33.20;50.10
5494;DHT22;2769;49.864;8.656;2022-08-19T15:17:02;33.10;50.20
5494;DHT22;2769;49.864;8.656;2022-08-19T15:19:49;32.90;50.50
5494;DHT22;2769;49.864;8.656;2022-08-19T15:22:35;32.60;50.90
5494;DHT22;2769;49.864;8.656;2022-08-19T15:25:22;32.30;52.00
5494;DHT22;2769;49.864;8.656;2022-08-19T15:28:09;32.50;51.30
5494;DHT22;2769;49.864;8.656;2022-08-19T15:30:58;32.50;51.10
5494;DHT22;2769;49.864;8.656;2022-08-19T15:33:45;32.30;52.30
5494;DHT22;2769;49.864;8.656;2022-08-19T15:36:37;32.30;51.70
5494;DHT22;2769;49.864;8.656;2022-08-19T15:39:23;32.10;52.10
5494;DHT22;2769;49.864;8.656;2022-08-19T15:42:10;32.20;51.90
5494;DHT22;2769;49.864;8.656;2022-08-19T15:45:03;32.00;52.20
5494;DHT22;2769;49.864;8.656;2022-08-19T15:47:51;32.10;51.60
5494;DHT22;2769;49.864;8.656;2022-08-19T15:50:38;31.90;52.50
5494;DHT22;2769;49.864;8.656;2022-08-19T15:53:26;32.20;51.60
5494;DHT22;2769;49.864;8.656;2022-08-19T15:56:13;32.50;51.40
5494;DHT22;2769;49.864;8.656;2022-08-19T15:59:00;32.10;50.50
5494;DHT22;2769;49.864;8.656;2022-08-19T16:02:04;32.20;51.30
5494;DHT22;2769;49.864;8.656;2022-08-19T16:05:20;32.30;51.30
5494;DHT22;2769;49.864;8.656;2022-08-19T16:08:25;32.00;52.00
5494;DHT22;2769;49.864;8.656;2022-08-19T16:11:12;31.60;52.00
5494;DHT22;2769;49.864;8.656;2022-08-19T16:14:04;31.60;52.30
5494;DHT22;2769;49.864;8.656;2022-08-19T16:16:54;31.60;52.10
5494;DHT22;2769;49.864;8.656;2022-08-19T16:19:41;31.40;52.30
5494;DHT22;2769;49.864;8.656;2022-08-19T16:22:31;31.30;52.70
5494;DHT22;2769;49.864;8.656;2022-08-19T16:25:18;31.50;52.90
5494;DHT22;2769;49.864;8.656;2022-08-19T16:28:04;31.50;52.90
5494;DHT22;2769;49.864;8.656;2022-08-19T16:30:53;31.40;52.80
5494;DHT22;2769;49.864;8.656;2022-08-19T16:33:39;31.30;52.80
5494;DHT22;2769;49.864;8.656;2022-08-19T16:36:26;31.30;53.00
5494;DHT22;2769;49.864;8.656;2022-08-19T16:39:17;31.30;53.00
5494;DHT22;2769;49.864;8.656;2022-08-19T16:42:05;31.30;52.80
5494;DHT22;2769;49.864;8.656;2022-08-19T16:44:52;31.10;54.20
5494;DHT22;2769;49.864;8.656;2022-08-19T16:47:39;31.10;54.20
5494;DHT22;2769;49.864;8.656;2022-08-19T16:50:25;31.20;54.30
5494;DHT22;2769;49.864;8.656;2022-08-19T16:53:32;31.10;53.80
5494;DHT22;2769;49.864;8.656;2022-08-19T16:56:20;31.10;54.50
5494;DHT22;2769;49.864;8.656;2022-08-19T16:59:10;31.00;54.60
5494;DHT22;2769;49.864;8.656;2022-08-19T17:01:58;30.90;55.40
5494;DHT22;2769;49.864;8.656;2022-08-19T17:04:44;31.10;54.70
5494;DHT22;2769;49.864;8.656;2022-08-19T17:07:43;30.80;55.00
5494;DHT22;2769;49.864;8.656;2022-08-19T17:10:29;30.90;55.00
5494;DHT22;2769;49.864;8.656;2022-08-19T17:13:18;30.70;55.20
5494;DHT22;2769;49.864;8.656;2022-08-19T17:16:05;30.90;55.60
5494;DHT22;2769;49.864;8.656;2022-08-19T17:18:53;30.80;55.40
5494;DHT22;2769;49.864;8.656;2022-08-19T17:21:40;30.80;55.80
5494;DHT22;2769;49.864;8.656;2022-08-19T17:24:27;30.70;55.90
5494;DHT22;2769;49.864;8.656;2022-08-19T17:27:28;30.60;56.70
5494;DHT22;2769;49.864;8.656;2022-08-19T17:30:19;30.70;56.80
5494;DHT22;2769;49.864;8.656;2022-08-19T17:33:06;30.90;56.50
5494;DHT22;2769;49.864;8.656;2022-08-19T17:35:53;31.00;56.20
5494;DHT22;2769;49.864;8.656;2022-08-19T17:38:40;30.90;56.70
5494;DHT22;2769;49.864;8.656;2022-08-19T17:41:29;30.90;56.80
5494;DHT22;2769;49.864;8.656;2022-08-19T17:44:17;30.80;57.00
5494;DHT22;2769;49.864;8.656;2022-08-19T17:47:06;30.70;57.70
5494;DHT22;2769;49.864;8.656;2022-08-19T17:49:53;30.60;57.60
5494;DHT22;2769;49.864;8.656;2022-08-19T17:52:40;30.50;57.30
5494;DHT22;2769;49.864;8.656;2022-08-19T17:55:27;30.40;56.30
5494;DHT22;2769;49.864;8.656;2022-08-19T17:58:14;30.10;57.10
5494;DHT22;2769;49.864;8.656;2022-08-19T18:01:04;30.10;56.70
5494;DHT22;2769;49.864;8.656;2022-08-19T18:03:56;30.10;57.10
5494;DHT22;2769;49.864;8.656;2022-08-19T18:06:42;30.00;57.40
5494;DHT22;2769;49.864;8.656;2022-08-19T18:09:39;30.00;57.30
5494;DHT22;2769;49.864;8.656;2022-08-19T18:12:33;29.80;57.50
5494;DHT22;2769;49.864;8.656;2022-08-19T18:15:21;29.90;57.30
5494;DHT22;2769;49.864;8.656;2022-08-19T18:18:08;30.00;56.40
5494;DHT22;2769;49.864;8.656;2022-08-19T18:21:01;29.90;56.20
5494;DHT22;2769;49.864;8.656;2022-08-19T18:23:48;29.60;56.10
5494;DHT22;2769;49.864;8.656;2022-08-19T18:26:39;29.50;55.90